Time;durP1;ratioP1;P1;durP2;ratioP2;P2;SDS_P1;SDS_P2;PMS_P1;PMS_P2;Temp;Humidity;BMP_temperature;BMP_pressure;BME280_temperature;BME280_humidity;BME280_pressure;Samples;Min_cycle;Max_cycle;Signal;HPM_P1;HPM_P2
2022/12/14 00:01:17;;;;;;;78.78;38.13;;;;;;;-6.14;78.52;100395.27;1814819;78;25719;-77
2022/12/14 00:03:45;;;;;;;78.25;36.53;;;;;;;-6.15;78.48;100394.88;1812192;78;25920;-77
2022/12/14 00:06:25;;;;;;;84.95;37.25;;;;;;;-6.16;78.49;100393.67;1817947;78;25863;-78
2022/12/14 00:08:56;;;;;;;79.30;35.40;;;;;;;-6.20;78.32;100388.26;1798295;78;25830;-77
2022/12/14 00:11:23;;;;;;;78.62;37.67;;;;;;;-6.23;78.05;100381.90;1813253;78;28246;-78
2022/12/14 00:13:58;;;;;;;80.47;38.17;;;;;;;-6.26;77.91;100384.21;1821869;78;26389;-78
2022/12/14 00:16:28;;;;;;;79.30;38.17;;;;;;;-6.30;77.72;100382.25;1812176;78;25875;-77
2022/12/14 00:18:57;;;;;;;76.05;37.67;;;;;;;-6.33;77.54;100383.71;1813673;78;25778;-77
2022/12/14 00:21:24;;;;;;;86.60;38.90;;;;;;;-6.38;77.44;100386.21;1817269;78;25889;-77
2022/12/14 00:23:52;;;;;;;89.25;39.65;;;;;;;-6.42;77.36;100390.77;1823990;78;27442;-78
2022/12/14 00:26:24;;;;;;;81.85;39.55;;;;;;;-6.46;77.33;100385.31;1811145;78;26269;-77
2022/12/14 00:28:53;;;;;;;87.92;40.17;;;;;;;-6.48;77.21;100390.27;1811490;78;26422;-77
2022/12/14 00:31:21;;;;;;;83.22;37.10;;;;;;;-6.51;77.09;100395.63;1815110;78;25842;-78
2022/12/14 00:33:49;;;;;;;84.97;38.13;;;;;;;-6.54;77.01;100393.17;1804774;78;25297;-78
2022/12/14 00:36:15;;;;;;;85.85;41.65;;;;;;;-6.57;76.87;100390.77;1820611;78;27452;-78
2022/12/14 00:38:42;;;;;;;91.50;41.68;;;;;;;-6.58;76.95;100395.58;1821918;78;25882;-77
2022/12/14 00:41:10;;;;;;;102.78;42.23;;;;;;;-6.61;76.86;100399.22;1807699;78;26602;-78
2022/12/14 00:43:36;;;;;;;93.97;41.50;;;;;;;-6.63;76.86;100397.61;1809525;78;25785;-78
2022/12/14 00:46:04;;;;;;;93.42;39.50;;;;;;;-6.66;76.78;100389.50;1817239;77;26427;-78
2022/12/14 00:48:31;;;;;;;88.17;40.12;;;;;;;-6.69;76.68;100384.45;1776763;79;27434;-77
2022/12/14 00:50:57;;;;;;;87.92;38.83;;;;;;;-6.70;76.68;100385.84;1796106;77;25777;-77
2022/12/14 00:53:24;;;;;;;88.50;39.85;;;;;;;-6.72;76.86;100385.93;1807637;77;25791;-77
2022/12/14 00:55:51;;;;;;;93.62;40.33;;;;;;;-6.74;76.86;100385.17;1796872;79;26404;-78
2022/12/14 00:58:20;;;;;;;96.97;43.87;;;;;;;-6.81;76.75;100385.58;1808467;78;25796;-78
2022/12/14 01:00:59;;;;;;;106.32;45.60;;;;;;;-6.86;76.86;100385.00;1807902;78;27440;-78
2022/12/14 01:03:26;;;;;;;117.70;48.95;;;;;;;-6.98;76.14;100383.03;1772546;80;25739;-77
2022/12/14 01:05:52;;;;;;;133.25;54.23;;;;;;;-7.22;75.11;100389.92;1793852;78;25858;-77
2022/12/14 01:08:18;;;;;;;157.25;65.17;;;;;;;-7.42;74.77;100382.30;1781531;79;25775;-78
2022/12/14 01:10:45;;;;;;;164.85;66.55;;;;;;;-7.57;74.99;100382.27;1808788;78;25803;-77
2022/12/14 01:13:11;;;;;;;171.13;66.17;;;;;;;-7.69;74.63;100383.72;1821755;78;27494;-77
2022/12/14 01:15:37;;;;;;;168.32;68.55;;;;;;;-7.76;74.63;100375.84;1781590;80;25892;-77
2022/12/14 01:18:04;;;;;;;179.53;72.12;;;;;;;-7.81;74.58;100374.41;1819446;78;25830;-77
2022/12/14 01:20:30;;;;;;;172.80;71.17;;;;;;;-7.85;74.58;100375.03;1812852;78;25715;-78
2022/12/14 01:22:57;;;;;;;170.45;70.05;;;;;;;-7.86;74.68;100381.98;1798888;78;25707;-77
2022/12/14 01:25:24;;;;;;;149.35;65.97;;;;;;;-7.87;74.61;100389.86;1780501;80;27411;-77
2022/12/14 01:27:50;;;;;;;155.93;65.35;;;;;;;-7.89;74.53;100390.40;1734919;78;26098;-77
2022/12/14 01:30:18;;;;;;;145.70;61.80;;;;;;;-7.89;74.46;100385.20;1808741;78;25756;-78
2022/12/14 01:32:45;;;;;;;131.00;55.78;;;;;;;-7.92;74.48;100382.28;1810860;78;26706;-78
2022/12/14 01:35:11;;;;;;;130.37;57.05;;;;;;;-7.91;74.94;100383.95;1785901;78;25934;-77
2022/12/14 01:37:38;;;;;;;128.93;56.42;;;;;;;-7.91;74.93;100392.20;1787130;80;27441;-77
2022/12/14 01:40:05;;;;;;;131.45;53.55;;;;;;;-7.90;74.88;100386.10;1809460;78;25536;-77
2022/12/14 01:42:35;;;;;;;130.70;58.87;;;;;;;-7.90;74.87;100384.35;1818012;78;25858;-77
2022/12/14 01:45:03;;;;;;;138.27;55.43;;;;;;;-7.89;74.70;100383.41;1808148;78;26399;-77
2022/12/14 01:47:42;;;;;;;139.75;57.15;;;;;;;-7.90;74.50;100383.05;1771884;80;25839;-78
2022/12/14 01:50:23;;;;;;;122.80;52.58;;;;;;;-7.91;74.14;100384.41;1821746;78;27474;-77
2022/12/14 01:52:53;;;;;;;126.47;53.30;;;;;;;-7.92;74.28;100382.28;1787924;78;26360;-77
2022/12/14 01:55:24;;;;;;;136.12;57.27;;;;;;;-7.94;74.15;100384.12;1807503;78;25780;-78
2022/12/14 01:57:57;;;;;;;;;;;;;;;-7.99;74.12;100384.80;1809972;78;26466;-78
2022/12/14 02:00:23;;;;;;;125.12;54.05;;;;;;;-8.02;74.09;100386.23;1810410;78;25792;-77
2022/12/14 02:02:55;;;;;;;129.18;53.23;;;;;;;-8.07;74.11;100377.84;1793253;78;28230;-77
2022/12/14 02:05:24;;;;;;;129.27;56.85;;;;;;;-8.11;74.09;100372.42;1804625;78;25792;-78
2022/12/14 02:07:54;;;;;;;133.10;57.00;;;;;;;-8.12;74.02;100370.72;1785742;80;25862;-77
2022/12/14 02:10:23;;;;;;;138.65;58.28;;;;;;;-8.14;73.91;100375.61;1803324;78;26205;-78
2022/12/14 02:12:58;;;;;;;139.97;57.43;;;;;;;-8.17;73.85;100373.99;1805406;78;25792;-77
2022/12/14 02:15:25;;;;;;;144.90;57.13;;;;;;;-8.20;73.90;100384.55;1768954;80;28450;-78
2022/12/14 02:17:51;;;;;;;149.65;59.33;;;;;;;-8.24;73.92;100378.28;1805697;78;25912;-77
2022/12/14 02:20:20;;;;;;;142.55;56.48;;;;;;;-8.28;73.91;100369.84;1805441;78;25757;-77
2022/12/14 02:23:02;;;;;;;147.07;56.35;;;;;;;-8.30;73.65;100369.52;1790690;78;26320;-77
2022/12/14 02:26:01;;;;;;;140.68;55.52;;;;;;;-8.33;73.37;100366.61;1792443;78;26227;-77
2022/12/14 02:29:11;;;;;;;119.87;51.00;;;;;;;-8.37;73.03;100375.92;1806911;78;27412;-77
2022/12/14 02:31:43;;;;;;;121.50;52.20;;;;;;;-8.42;72.74;100368.80;1800972;78;25784;-78
2022/12/14 02:34:23;;;;;;;128.20;52.23;;;;;;;-8.50;72.49;100367.88;1782144;78;26311;-77
2022/12/14 02:37:11;;;;;;;;;;;;;;;-8.53;72.22;100373.69;1792169;79;26484;-77
2022/12/14 02:40:01;;;;;;;118.65;50.38;;;;;;;-8.59;71.77;100381.73;1779151;79;26423;-78
2022/12/14 02:42:38;;;;;;;121.40;48.02;;;;;;;-8.70;71.47;100382.23;1799947;78;27447;-78
2022/12/14 02:45:34;;;;;;;112.55;47.67;;;;;;;-8.79;71.36;100375.72;1799159;78;25931;-77
2022/12/14 02:48:13;;;;;;;109.83;47.98;;;;;;;-8.86;71.23;100376.94;1819893;77;25252;-78
2022/12/14 02:50:56;;;;;;;100.62;45.95;;;;;;;-8.92;71.01;100375.08;1829336;77;26284;-77
2022/12/14 02:53:53;;;;;;;101.18;44.00;;;;;;;-8.97;70.89;100373.14;1840112;77;25817;-77
2022/12/14 02:56:25;;;;;;;112.05;47.23;;;;;;;-9.03;70.94;100371.68;1838858;77;27519;-78
2022/12/14 02:58:52;;;;;;;104.07;42.75;;;;;;;-9.09;70.66;100372.41;1837072;77;25733;-78
2022/12/14 03:01:24;;;;;;;112.42;45.95;;;;;;;-9.15;70.80;100370.92;1835613;77;25703;-77
2022/12/14 03:03:51;;;;;;;96.92;42.65;;;;;;;-9.18;70.77;100367.62;1831833;77;25603;-78
2022/12/14 03:06:26;;;;;;;114.00;46.25;;;;;;;-9.21;70.67;100372.94;1827979;77;25743;-77
2022/12/14 03:09:01;;;;;;;101.20;44.93;;;;;;;-9.23;70.74;100377.36;1833964;77;27519;-78
2022/12/14 03:11:40;;;;;;;94.70;41.65;;;;;;;-9.28;70.66;100377.56;1822125;77;26448;-77
2022/12/14 03:14:17;;;;;;;91.82;43.25;;;;;;;-9.33;70.44;100382.13;1829781;77;26306;-78
2022/12/14 03:16:48;;;;;;;102.47;45.03;;;;;;;-9.36;70.51;100376.22;1819295;77;25818;-77
2022/12/14 03:19:29;;;;;;;103.95;44.45;;;;;;;-9.39;70.58;100386.73;1831350;77;26483;-77
2022/12/14 03:21:59;;;;;;;102.30;45.38;;;;;;;-9.42;70.66;100379.94;1823756;77;26945;-76
2022/12/14 03:24:31;;;;;;;95.47;42.95;;;;;;;-9.44;70.67;100377.86;1837978;77;25816;-77
2022/12/14 03:27:26;;;;;;;107.85;45.20;;;;;;;-9.46;70.77;100380.53;1846356;77;25816;-77
2022/12/14 03:30:01;;;;;;;111.32;49.15;;;;;;;-9.45;70.81;100378.31;1818300;78;25826;-77
2022/12/14 03:32:31;;;;;;;114.77;51.53;;;;;;;-9.43;71.25;100380.01;1832062;77;26405;-77
2022/12/14 03:35:29;;;;;;;124.03;52.37;;;;;;;-9.40;71.50;100380.70;1844616;77;27436;-77
2022/12/14 03:38:09;;;;;;;114.52;51.35;;;;;;;-9.38;71.50;100378.88;1824417;77;25736;-78
2022/12/14 03:40:42;;;;;;;;;;;;;;;-9.38;71.47;100380.18;1804692;77;26068;-79
2022/12/14 03:43:20;;;;;;;129.53;55.30;;;;;;;-9.39;71.75;100386.73;1797997;77;25854;-78
2022/12/14 03:46:01;;;;;;;125.05;53.87;;;;;;;-9.36;72.07;100393.92;1844401;77;25364;-78
2022/12/14 03:48:48;;;;;;;142.75;56.18;;;;;;;-9.33;72.38;100390.36;1809522;78;28214;-77
2022/12/14 03:51:34;;;;;;;129.93;54.00;;;;;;;-9.29;72.87;100391.90;1817150;78;25723;-77
2022/12/14 03:54:18;;;;;;;128.45;52.05;;;;;;;-9.26;73.21;100389.19;1797151;78;25721;-77
2022/12/14 03:56:56;;;;;;;133.43;55.95;;;;;;;-9.21;73.52;100385.91;1798744;78;26554;-77
2022/12/14 03:59:43;;;;;;;120.95;48.95;;;;;;;-9.15;73.91;100394.73;1803543;78;25791;-77
2022/12/14 04:02:30;;;;;;;116.65;52.53;;;;;;;-9.09;74.14;100394.02;1801236;78;27462;-77
2022/12/14 04:05:32;;;;;;;116.42;49.77;;;;;;;-9.04;74.43;100392.48;1810451;78;25814;-77
2022/12/14 04:08:25;;;;;;;123.30;52.10;;;;;;;-8.96;74.68;100391.70;1780113;80;25463;-78
2022/12/14 04:19:42;;;;;;;121.62;51.35;;;;;;;-8.76;75.47;100384.67;1788253;78;25469;-78
2022/12/14 04:22:13;;;;;;;119.97;52.95;;;;;;;-8.69;75.81;100383.48;1810914;78;25925;-77
2022/12/14 04:27:49;;;;;;;116.55;52.80;;;;;;;-8.58;76.25;100375.20;1786777;79;26090;-77
2022/12/14 04:30:16;;;;;;;126.40;53.87;;;;;;;-8.51;76.39;100380.94;1806805;78;27445;-78
2022/12/14 04:32:51;;;;;;;127.58;55.38;;;;;;;-8.46;76.44;100381.55;1838652;77;25758;-77
2022/12/14 04:35:38;;;;;;;127.55;57.10;;;;;;;-8.41;76.54;100383.48;1825350;78;25692;-77
2022/12/14 04:38:15;;;;;;;129.90;55.45;;;;;;;-8.36;76.58;100386.22;1829351;77;26234;-77
2022/12/14 04:40:50;;;;;;;118.85;54.93;;;;;;;-8.32;76.82;100380.45;1824374;78;25808;-77
2022/12/14 04:43:21;;;;;;;116.17;50.92;;;;;;;-8.26;77.19;100389.23;1808166;78;27459;-78
2022/12/14 04:46:14;;;;;;;111.65;50.17;;;;;;;-8.21;77.54;100392.43;1782095;78;25790;-78
2022/12/14 04:49:09;;;;;;;107.52;48.85;;;;;;;-8.16;77.79;100390.43;1794693;78;25757;-77
2022/12/14 04:51:58;;;;;;;124.42;55.80;;;;;;;-8.08;78.19;100390.44;1793313;78;25647;-78
2022/12/14 04:54:32;;;;;;;147.98;58.25;;;;;;;-8.02;78.23;100388.83;1798260;78;25872;-77
2022/12/14 04:57:16;;;;;;;140.18;60.45;;;;;;;-7.98;77.94;100386.50;1802306;78;27500;-78
2022/12/14 04:59:43;;;;;;;145.77;62.70;;;;;;;-7.98;77.61;100381.30;1787450;79;25770;-78
2022/12/14 05:02:39;;;;;;;151.70;65.47;;;;;;;-7.96;77.59;100381.21;1807812;78;26510;-78
2022/12/14 05:05:21;;;;;;;175.00;69.67;;;;;;;-7.94;77.67;100367.68;1822636;78;26674;-77
2022/12/14 05:08:01;;;;;;;180.72;72.50;;;;;;;-7.91;77.89;100367.51;1811571;78;25839;-77
2022/12/14 05:10:33;;;;;;;197.87;77.32;;;;;;;-7.88;78.07;100364.31;1815176;77;27530;-77
2022/12/14 05:13:17;;;;;;;178.47;73.67;;;;;;;-7.83;78.15;100354.99;1807880;77;26222;-77
2022/12/14 05:15:55;;;;;;;184.97;73.55;;;;;;;-7.81;78.31;100353.16;1754309;78;25716;-76
2022/12/14 05:18:22;;;;;;;180.90;69.30;;;;;;;-7.76;78.43;100352.44;1808832;77;25741;-76
2022/12/14 05:20:50;;;;;;;167.32;67.70;;;;;;;-7.72;78.45;100352.70;1812238;77;25809;-76
2022/12/14 05:23:16;;;;;;;163.07;71.07;;;;;;;-7.70;78.53;100352.16;1778108;78;28704;-78
2022/12/14 05:25:43;;;;;;;162.85;69.67;;;;;;;-7.68;78.62;100354.22;1818896;77;25884;-76
2022/12/14 05:28:11;;;;;;;169.30;68.55;;;;;;;-7.63;78.71;100360.48;1819389;77;25836;-77
2022/12/14 05:30:37;;;;;;;149.15;63.33;;;;;;;-7.61;78.83;100358.16;1817292;77;26282;-77
2022/12/14 05:33:04;;;;;;;161.90;61.58;;;;;;;-7.55;79.09;100350.52;1816296;78;25743;-77
2022/12/14 05:35:30;;;;;;;126.75;53.65;;;;;;;-7.49;79.67;100351.50;1809093;77;27424;-76
2022/12/14 05:37:56;;;;;;;125.78;50.17;;;;;;;-7.43;80.57;100341.62;1823214;78;25744;-77
2022/12/14 05:40:22;;;;;;;108.70;45.55;;;;;;;-7.36;81.34;100347.34;1818858;77;26416;-76
2022/12/14 05:42:49;;;;;;;111.47;42.95;;;;;;;-7.32;82.00;100353.61;1817132;77;28274;-76
2022/12/14 05:45:15;;;;;;;95.70;39.67;;;;;;;-7.27;82.52;100347.68;1829980;77;25759;-76
2022/12/14 05:47:42;;;;;;;99.45;39.10;;;;;;;-7.23;82.97;100347.08;1841865;77;28861;-77
2022/12/14 05:50:08;;;;;;;99.55;40.15;;;;;;;-7.20;83.37;100352.95;1842550;77;25710;-77
2022/12/14 05:52:35;;;;;;;87.60;35.55;;;;;;;-7.15;83.74;100347.50;1834670;76;25853;-77
2022/12/14 05:55:01;;;;;;;79.30;35.60;;;;;;;-7.12;84.19;100348.17;1836293;77;26068;-76
2022/12/14 05:57:27;;;;;;;76.67;33.83;;;;;;;-7.07;84.57;100349.23;1840244;76;25995;-76
2022/12/14 05:59:53;;;;;;;77.00;33.88;;;;;;;-7.03;84.91;100348.63;1846078;76;27589;-76
2022/12/14 06:02:20;;;;;;;83.12;35.28;;;;;;;-6.99;85.26;100347.05;1827086;77;26500;-76
2022/12/14 06:04:46;;;;;;;85.55;36.68;;;;;;;-6.94;85.64;100351.55;1842893;76;26089;-77
2022/12/14 06:07:14;;;;;;;85.28;36.23;;;;;;;-6.87;85.89;100358.58;1835653;77;26414;-76
2022/12/14 06:09:40;;;;;;;80.45;34.92;;;;;;;-6.81;86.13;100363.44;1845493;77;25801;-77
2022/12/14 06:12:07;;;;;;;94.25;40.45;;;;;;;-6.76;86.39;100364.89;1833934;77;28230;-77
2022/12/14 06:14:33;;;;;;;86.60;39.78;;;;;;;-6.72;86.56;100364.25;1841810;77;26489;-76
2022/12/14 06:16:59;;;;;;;103.80;43.48;;;;;;;-6.68;86.75;100373.12;1843733;76;26104;-76
2022/12/14 06:19:26;;;;;;;123.50;49.83;;;;;;;-6.63;86.79;100368.96;1829065;76;26454;-76
2022/12/14 06:21:52;;;;;;;119.13;48.68;;;;;;;-6.62;86.67;100366.27;1807792;78;25270;-76
2022/12/14 06:24:18;;;;;;;129.90;48.28;;;;;;;-6.61;86.49;100366.66;1831380;76;27648;-77
2022/12/14 06:26:45;;;;;;;119.95;47.83;;;;;;;-6.60;86.35;100370.92;1816079;78;25843;-76
2022/12/14 06:29:18;;;;;;;109.12;45.95;;;;;;;-6.59;86.34;100381.73;1839706;76;25889;-77
2022/12/14 06:31:45;;;;;;;91.82;43.13;;;;;;;-6.58;86.51;100376.89;1806080;77;25776;-76
2022/12/14 06:34:12;;;;;;;96.90;42.05;;;;;;;-6.57;86.52;100373.38;1823179;77;25857;-77
2022/12/14 06:36:41;;;;;;;94.45;39.13;;;;;;;-6.55;86.50;100375.88;1826962;76;27425;-77
2022/12/14 06:39:12;;;;;;;102.42;45.58;;;;;;;-6.56;86.48;100380.25;1831365;76;25733;-77
2022/12/14 06:41:39;;;;;;;97.30;40.98;;;;;;;-6.57;86.34;100378.58;1840402;75;26334;-77
2022/12/14 06:44:10;;;;;;;92.55;40.58;;;;;;;-6.55;86.36;100380.64;1832250;77;25482;-77
2022/12/14 06:46:37;;;;;;;;;;;;;;;-6.52;86.30;100383.05;1851369;77;26514;-77
2022/12/14 06:49:05;;;;;;;100.12;40.58;;;;;;;-6.48;86.40;100378.54;1810316;77;27448;-76
2022/12/14 06:51:36;;;;;;;99.22;38.08;;;;;;;-6.49;86.35;100384.66;1811206;78;26468;-76
2022/12/14 06:54:02;;;;;;;;;;;;;;;-6.49;86.27;100388.11;1813389;78;25810;-76
2022/12/14 06:56:28;;;;;;;98.70;42.15;;;;;;;-6.50;86.18;100383.00;1813234;78;26370;-76
2022/12/14 06:58:55;;;;;;;103.12;42.48;;;;;;;-6.50;86.30;100380.39;1813164;78;25906;-76
2022/12/14 07:01:24;;;;;;;94.42;39.42;;;;;;;-6.48;86.33;100379.84;1807198;78;27516;-76
2022/12/14 07:03:55;;;;;;;101.95;43.08;;;;;;;-6.47;86.32;100374.98;1812970;78;25878;-77
2022/12/14 07:06:24;;;;;;;107.50;45.45;;;;;;;-6.46;86.32;100385.31;1816261;78;26472;-76
2022/12/14 07:08:57;;;;;;;104.07;46.18;;;;;;;-6.44;86.38;100390.47;1822602;78;26341;-76
2022/12/14 07:11:25;;;;;;;93.65;41.55;;;;;;;-6.42;86.39;100393.37;1810291;78;25794;-76
2022/12/14 07:13:54;;;;;;;94.42;39.45;;;;;;;-6.41;86.33;100391.12;1826642;78;28824;-76
2022/12/14 07:16:24;;;;;;;82.40;35.40;;;;;;;-6.39;86.29;100400.15;1821813;78;25936;-76
2022/12/14 07:18:54;;;;;;;75.00;34.35;;;;;;;-6.39;86.16;100394.94;1818210;78;25866;-76
2022/12/14 07:21:22;;;;;;;82.27;35.23;;;;;;;-6.40;86.02;100391.52;1815757;78;25813;-76
2022/12/14 07:23:51;;;;;;;74.00;35.95;;;;;;;-6.40;86.05;100394.13;1825739;78;25829;-76
2022/12/14 07:26:26;;;;;;;82.85;35.17;;;;;;;-6.41;85.96;100392.42;1826943;78;27492;-76
2022/12/14 07:28:53;;;;;;;70.42;33.83;;;;;;;-6.40;85.98;100391.52;1817073;78;25666;-76
2022/12/14 07:31:26;;;;;;;76.15;32.15;;;;;;;-6.39;85.93;100394.48;1811725;78;25728;-76
2022/12/14 07:33:56;;;;;;;76.07;33.30;;;;;;;-6.39;85.71;100394.94;1810742;78;25789;-76
2022/12/14 07:36:24;;;;;;;68.77;32.43;;;;;;;-6.41;85.64;100395.03;1811052;78;25808;-77
2022/12/14 07:38:51;;;;;;;67.58;30.48;;;;;;;-6.41;85.56;100392.42;1819635;78;26905;-77
2022/12/14 07:41:25;;;;;;;78.95;35.95;;;;;;;-6.42;85.63;100392.06;1787040;78;26477;-77
2022/12/14 07:43:54;;;;;;;60.63;29.02;;;;;;;-6.40;85.60;100392.82;1813329;78;25778;-76
2022/12/14 07:46:24;;;;;;;75.12;31.37;;;;;;;-6.41;85.50;100392.42;1810826;78;26199;-76
2022/12/14 07:48:54;;;;;;;63.92;29.30;;;;;;;-6.39;85.59;100393.64;1797684;78;25907;-78
2022/12/14 07:51:25;;;;;;;75.90;36.80;;;;;;;-6.40;85.51;100391.97;1791082;78;27825;-81
2022/12/14 07:53:52;;;;;;;69.95;30.08;;;;;;;-6.35;86.14;100389.96;1736296;78;25513;-79
2022/12/14 07:56:23;;;;;;;72.90;33.05;;;;;;;-6.31;85.90;100390.98;1817102;77;25813;-81
2022/12/14 07:58:51;;;;;;;70.28;32.42;;;;;;;-6.30;85.52;100391.83;1791635;77;26349;-87
2022/12/14 08:01:24;;;;;;;87.78;42.20;;;;;;;-6.31;85.36;100394.08;1814277;78;25763;-81
2022/12/14 08:03:54;;;;;;;75.37;34.33;;;;;;;-6.32;85.35;100394.53;1812991;78;28235;-82
2022/12/14 08:06:22;;;;;;;;;;;;;;;-6.32;85.24;100393.68;1824939;78;25939;-87
2022/12/14 08:08:49;;;;;;;73.12;32.00;;;;;;;-6.32;85.37;100382.80;1819525;77;25817;-86
2022/12/14 08:11:17;;;;;;;65.90;28.67;;;;;;;-6.30;85.55;100378.34;1817522;78;25611;-77
2022/12/14 08:13:43;;;;;;;94.47;43.28;;;;;;;-6.27;85.33;100381.70;1816350;78;25279;-76
2022/12/14 08:16:14;;;;;;;82.53;36.55;;;;;;;-6.31;85.28;100383.16;1761552;78;28197;-84
2022/12/14 08:18:41;;;;;;;77.75;35.73;;;;;;;-6.27;85.31;100376.48;1815268;77;25894;-74
2022/12/14 08:21:10;;;;;;;75.60;32.88;;;;;;;-6.26;85.29;100383.39;1817574;77;25279;-76
2022/12/14 08:23:38;;;;;;;81.80;33.50;;;;;;;-6.25;85.28;100387.21;1803573;77;26417;-73
2022/12/14 08:26:06;;;;;;;85.28;36.50;;;;;;;-6.25;85.15;100386.36;1814908;77;25904;-74
2022/12/14 08:28:34;;;;;;;83.27;33.80;;;;;;;-6.25;85.20;100387.21;1786272;79;27436;-75
2022/12/14 08:31:14;;;;;;;80.32;35.10;;;;;;;-6.25;85.12;100392.42;1787963;79;25839;-74
2022/12/14 08:33:42;;;;;;;104.25;42.58;;;;;;;-6.25;85.11;100385.05;1810609;78;25803;-73
2022/12/14 08:36:12;;;;;;;98.35;42.73;;;;;;;-6.24;85.29;100382.36;1806759;77;25911;-73
2022/12/14 08:38:40;;;;;;;78.92;37.17;;;;;;;-6.26;85.25;100379.00;1814555;78;25790;-73
2022/12/14 08:41:13;;;;;;;96.85;42.55;;;;;;;-6.29;84.98;100380.49;1787360;78;27437;-73
2022/12/14 08:43:40;;;;;;;145.30;67.40;;;;;;;-6.31;85.06;100381.86;1777789;79;25893;-75
2022/12/14 08:46:09;;;;;;;142.93;60.03;;;;;;;-6.29;85.03;100376.09;1785516;79;25738;-75
2022/12/14 08:48:37;;;;;;;126.75;50.35;;;;;;;-6.29;84.95;100376.58;1775656;79;25759;-75
2022/12/14 08:51:06;;;;;;;129.65;51.85;;;;;;;-6.29;84.75;100378.70;1791160;79;26067;-74
2022/12/14 08:53:34;;;;;;;156.52;62.08;;;;;;;-6.25;84.91;100376.78;1787812;79;28246;-73
2022/12/14 08:56:11;;;;;;;115.20;45.52;;;;;;;-6.19;84.78;100372.52;1796804;79;26455;-73
2022/12/14 08:58:39;;;;;;;153.00;78.07;;;;;;;-6.21;84.45;100378.29;1789071;79;26025;-74
2022/12/14 09:01:13;;;;;;;122.20;50.40;;;;;;;-6.23;84.27;100379.30;1790397;79;26259;-73
2022/12/14 09:03:40;;;;;;;99.13;41.88;;;;;;;-6.26;84.16;100376.39;1786177;79;25731;-73
2022/12/14 09:06:10;;;;;;;105.80;44.93;;;;;;;-6.31;84.00;100370.62;1798637;78;27453;-73
2022/12/14 09:08:38;;;;;;;111.92;46.90;;;;;;;-6.36;84.09;100366.97;1787989;79;26436;-74
2022/12/14 09:11:06;;;;;;;143.45;71.97;;;;;;;-6.34;84.27;100360.36;1815565;77;26333;-74
2022/12/14 09:13:33;;;;;;;127.22;58.90;;;;;;;-6.31;84.29;100359.70;1830286;77;26252;-73
2022/12/14 09:16:04;;;;;;;125.05;51.33;;;;;;;-6.30;84.17;100359.25;1809690;74;25992;-74
2022/12/14 09:18:33;;;;;;;87.35;37.95;;;;;;;-6.27;84.26;100351.73;1760398;79;28205;-76
2022/12/14 09:21:00;;;;;;;82.72;35.35;;;;;;;-6.22;84.37;100353.62;1761206;80;25832;-76
2022/12/14 09:23:28;;;;;;;98.37;39.98;;;;;;;-6.22;84.14;100354.92;1754930;80;25924;-74
2022/12/14 09:26:07;;;;;;;95.15;38.30;;;;;;;-6.22;83.96;100361.44;1759047;81;26145;-75
2022/12/14 09:28:36;;;;;;;102.53;45.17;;;;;;;-6.20;84.34;100349.97;1793580;78;26501;-75
2022/12/14 09:31:10;;;;;;;113.77;53.00;;;;;;;-6.15;84.03;100353.17;1782205;78;27428;-80
2022/12/14 09:33:36;;;;;;;89.10;41.92;;;;;;;-6.13;83.78;100352.61;1759354;80;26627;-77
2022/12/14 09:36:11;;;;;;;153.65;76.12;;;;;;;-6.11;83.55;100346.84;1763375;80;25852;-75
2022/12/14 09:38:39;;;;;;;115.22;50.80;;;;;;;-6.11;83.31;100341.64;1753657;80;26995;-75
2022/12/14 09:41:49;;;;;;;107.85;45.50;;;;;;;-6.10;83.21;100340.72;1758474;80;25792;-77
2022/12/14 09:44:51;;;;;;;91.63;44.70;;;;;;;-6.11;82.99;100339.48;1755308;80;27476;-74
2022/12/14 09:47:37;;;;;;;99.62;44.65;;;;;;;-6.13;82.69;100331.77;1704278;81;26047;-75
2022/12/14 09:50:14;;;;;;;114.42;54.63;;;;;;;-6.17;82.51;100336.78;1746600;80;25841;-75
2022/12/14 09:52:57;;;;;;;83.60;43.02;;;;;;;-6.16;82.37;100333.27;1733617;81;25931;-75
2022/12/14 09:55:32;;;;;;;158.00;80.83;;;;;;;-6.20;81.90;100330.42;1781265;79;26484;-78
2022/12/14 09:58:19;;;;;;;98.42;47.83;;;;;;;-6.27;81.65;100317.85;1756089;80;27489;-75
2022/12/14 10:00:59;;;;;;;166.68;96.10;;;;;;;-6.39;81.35;100316.77;1761357;81;25855;-75
2022/12/14 10:03:52;;;;;;;179.27;95.22;;;;;;;-6.50;81.58;100311.35;1754834;81;25858;-75
2022/12/14 10:06:39;;;;;;;133.90;63.48;;;;;;;-6.51;81.88;100312.27;1753704;80;26234;-83
2022/12/14 10:09:31;;;;;;;104.05;43.98;;;;;;;-6.46;82.13;100308.45;1732559;81;25976;-76
2022/12/14 10:12:24;;;;;;;101.85;44.88;;;;;;;-6.45;81.97;100304.94;1747085;81;27483;-89
2022/12/14 10:15:17;;;;;;;95.32;41.63;;;;;;;-6.42;81.78;100309.99;1751928;81;25895;-85
2022/12/14 10:18:15;;;;;;;94.42;39.92;;;;;;;-6.44;81.42;100300.58;1761015;80;25273;-75
2022/12/14 10:21:05;;;;;;;108.30;48.80;;;;;;;-6.45;81.66;100297.13;1724243;81;26671;-75
2022/12/14 10:23:34;;;;;;;111.25;51.63;;;;;;;-6.42;81.88;100290.91;1737158;81;26003;-75
2022/12/14 10:26:07;;;;;;;128.62;55.45;;;;;;;-6.37;82.14;100279.73;1765626;80;27467;-75
2022/12/14 10:28:51;;;;;;;144.13;75.12;;;;;;;-6.30;82.32;100271.49;1776252;80;25972;-75
2022/12/14 10:31:55;;;;;;;124.97;59.10;;;;;;;-6.24;82.51;100270.28;1752527;80;26350;-86
2022/12/14 10:34:27;;;;;;;124.53;57.30;;;;;;;-6.15;82.74;100271.06;1750329;81;25788;-75
2022/12/14 10:37:15;;;;;;;125.90;57.00;;;;;;;-6.08;82.68;100259.81;1749779;80;27360;-84
2022/12/14 10:40:03;;;;;;;128.80;61.18;;;;;;;-6.05;82.77;100256.55;1735592;81;27692;-75
2022/12/14 10:42:47;;;;;;;130.80;64.67;;;;;;;-6.00;82.92;100246.70;1766496;80;25830;-75
2022/12/14 10:45:49;;;;;;;149.77;80.12;;;;;;;-5.96;83.05;100236.91;1784176;79;25888;-75
2022/12/14 10:48:44;;;;;;;144.35;67.03;;;;;;;-5.93;83.42;100232.38;1783946;79;26257;-75
2022/12/14 10:51:28;;;;;;;149.57;69.25;;;;;;;-5.85;83.81;100234.05;1773711;79;25747;-73
2022/12/14 10:54:08;;;;;;;179.10;89.83;;;;;;;-5.79;84.06;100228.42;1782165;79;27540;-75
2022/12/14 10:56:41;;;;;;;138.30;68.30;;;;;;;-5.70;84.35;100225.26;1772539;79;26602;-74
2022/12/14 10:59:25;;;;;;;128.53;61.53;;;;;;;-5.62;84.54;100216.48;1781522;79;25671;-76
2022/12/14 11:02:00;;;;;;;130.35;65.90;;;;;;;-5.56;84.55;100213.50;1782217;79;26482;-75
2022/12/14 11:04:35;;;;;;;126.47;60.03;;;;;;;-5.51;84.59;100210.61;1778109;79;25817;-75
2022/12/14 11:07:10;;;;;;;167.68;85.12;;;;;;;-5.43;85.50;100211.45;1800991;78;27832;-75
2022/12/14 11:09:38;;;;;;;157.05;72.92;;;;;;;-5.37;85.29;100204.08;1786284;78;26456;-75
2022/12/14 11:12:16;;;;;;;136.57;67.62;;;;;;;-5.31;85.36;100197.17;1788627;78;25853;-74
2022/12/14 11:15:05;;;;;;;119.42;58.08;;;;;;;-5.26;85.39;100193.78;1805960;78;25806;-75
2022/12/14 11:17:41;;;;;;;116.00;59.08;;;;;;;-5.20;85.40;100190.80;1761099;79;27080;-75
2022/12/14 11:20:21;;;;;;;101.18;50.63;;;;;;;-5.15;85.39;100186.59;1776580;80;27445;-76
2022/12/14 11:22:56;;;;;;;112.20;52.85;;;;;;;-5.11;85.77;100181.55;1743172;81;25828;-75
2022/12/14 11:25:36;;;;;;;117.13;54.93;;;;;;;-5.07;85.74;100174.70;1743612;81;25825;-75
2022/12/14 11:28:36;;;;;;;105.55;50.38;;;;;;;-5.00;85.80;100168.15;1753691;81;26538;-75
2022/12/14 11:31:16;;;;;;;113.90;56.50;;;;;;;-4.93;85.78;100164.67;1756951;81;26295;-75
2022/12/14 11:33:49;;;;;;;107.83;57.27;;;;;;;-4.89;85.84;100156.54;1751195;81;28262;-76
2022/12/14 11:36:38;;;;;;;106.12;53.48;;;;;;;-4.84;85.90;100153.17;1747395;81;25736;-74
2022/12/14 11:39:15;;;;;;;109.32;55.75;;;;;;;-4.81;85.72;100152.11;1750350;80;26439;-76
2022/12/14 11:41:49;;;;;;;102.67;49.55;;;;;;;-4.80;85.76;100145.95;1749192;81;26772;-76
2022/12/14 11:44:25;;;;;;;115.05;55.92;;;;;;;-4.79;85.75;100145.03;1759357;80;26332;-76
2022/12/14 11:47:00;;;;;;;119.28;64.27;;;;;;;-4.76;86.06;100141.74;1757710;80;27660;-76
2022/12/14 11:49:44;;;;;;;128.30;77.60;;;;;;;-4.74;85.87;100135.94;1773283;80;25503;-77